Beau Rivage — WDD3117 — position and weather

sailwx.info

Track history (hours):
 
Tides and Currents Weather Stations Pressure Air Temp Water Temp Dewpoint Dewpoint Depression Visibility Wind Speed Wind Dir Waves Ship Positions

Beau Rivage

Owner: Brown, Ricky, Vancleave, MS. More information available from US FCC via Universal Licensing System and Coast Guard Vessel Documentation Center.

Last reported at 2017-Sep-26 21:36 UTC. Time now 2017-Oct-19 05:45 UTC.
Position N 27°00' W 080°01'.
Warning: this ship's position is 22 days out of date.

Length 29 m.

Type: Fishing. MMSI: 367125970.

Date/timePositionNaut miles runAvg speedWind from/ knotsBaromVisibWave heightAir tempDewpointWater temp
2017-Sep-26 21:36N 27°00' W 080°01'1 8.0
2017-Sep-26 21:31N 26°60' W 080°01'4 8.0
2017-Sep-26 21:00N 26°56' W 080°00'41 7.7
2017-Sep-26 15:41N 26°15' W 080°00'2 8.4
2017-Sep-26 15:23N 26°12' W 080°01'3 8.3
2017-Sep-26 15:00N 26°09' W 080°01'4 8.8
2017-Sep-26 14:30N 26°05' W 080°02'5 9.5
2017-Sep-26 14:01N 26°00' W 080°02'5 9.1
2017-Sep-26 13:29N 25°55' W 080°03'4 8.6
2017-Sep-26 13:01N 25°51' W 080°03'4 7.9
2017-Sep-26 12:31N 25°47' W 080°03'4 7.9
2017-Sep-26 12:01N 25°43' W 080°03'4 8.6
2017-Sep-26 11:30N 25°39' W 080°03'  
Track history (hours):
 
Tides and Currents Weather Stations Pressure Air Temp Water Temp Dewpoint Dewpoint Depression Visibility Wind Speed Wind Dir Waves Ship Positions

Beau Rivage

Owner: Brown, Ricky, Vancleave, MS. More information available from US FCC via Universal Licensing System and Coast Guard Vessel Documentation Center.

Last reported at 2017-Sep-26 21:36 UTC. Time now 2017-Oct-19 05:45 UTC.
Position N 27°00' W 080°01'.
Warning: this ship's position is 22 days out of date.

Length 29 m.

Type: Fishing. MMSI: 367125970.

Date/timePositionNaut miles runAvg speedWind from/ knotsBaromVisibWave heightAir tempDewpointWater temp
2017-Sep-26 21:36N 27°00' W 080°01'1 8.0
2017-Sep-26 21:31N 26°60' W 080°01'4 8.0
2017-Sep-26 21:00N 26°56' W 080°00'41 7.7
2017-Sep-26 15:41N 26°15' W 080°00'2 8.4
2017-Sep-26 15:23N 26°12' W 080°01'3 8.3
2017-Sep-26 15:00N 26°09' W 080°01'4 8.8
2017-Sep-26 14:30N 26°05' W 080°02'5 9.5
2017-Sep-26 14:01N 26°00' W 080°02'5 9.1
2017-Sep-26 13:29N 25°55' W 080°03'4 8.6
2017-Sep-26 13:01N 25°51' W 080°03'4 7.9
2017-Sep-26 12:31N 25°47' W 080°03'4 7.9
2017-Sep-26 12:01N 25°43' W 080°03'4 8.6
2017-Sep-26 11:30N 25°39' W 080°03'  

Dump ship's entire track history